Strona główna
METAR-TAF:

METAR-TAF

Lotnisko :

Ilhéus, Bahia, Brazylia

Szerokość geograficzna: 14-49S, Długość geograficzna: 039-02W, wysokość: 4 m

Aktualna obserwacja pogody

Raport powstał 26 minut temu, godzina 20:00 UTC
Wiatr 6 kt od wschód
Temperatura 28°C
Wilgotność 74%
Ciśnienie 1013 hPa
Widzialność 10 km lub więcej
Mało chmury na wysokości 2500 ft
Rozproszone chmury na wysokości 8000 ft

METAR: SBIL 252000Z 10006KT 9999 FEW025 SCT080 28/23 Q1013

czas: 17:26 (20:26 UTC)

Prognoza

Raport powstał 4 godziny i 26 minut temu, godzina 16:00 UTC
Prognoza ważna od 25 godzina 18 UTC do 26 godzina 06 UTC
Wiatr 7 kt od południowo-południowy wschód
Widzialność 10 km lub więcej
Rozproszone chmury na wysokości 2300 ft
Mało chmury na wysokości 3000 ft, Cumulusy wypiętrznone.

TAF: SBIL 251600Z 2518/2606 15007KT 9999 SCT023TX28/2518Z TN23/2605ZTEMPO 2518/2523 SCT023 FEW030TCU RMK PGQ

Obserwacja i prognoza pogody dla ponad 4000 lotnisk (raport METAR i TAF).

Dostępne stacje oznaczono żółtymi i czerwonymi punktami na mapie.

Najedź kursorem aby zobaczyć nazwę stacji.

Kliknij aby zobaczyć obserwacje i prognozy pogody.

Aby zmienić mapę: kliknij na zielony przycisk z czarnym krzyżykiem, aby powiększyć; na zielony przycisk z myślnikiem, aby pomniejszyć; na zielone strzałki, aby przejść do map sąsiednich.


METAR-TAF: